sensor_id;sensor_type;location;lat;lon;timestamp;pressure;altitude;pressure_sealevel;temperature;humidity
11830;BME280;5972;42.134;24.718;2023-10-08T00:01:19;99890.91;;;16.87;60.67
11830;BME280;5972;42.134;24.718;2023-10-08T00:03:47;99883.97;;;16.96;59.77
11830;BME280;5972;42.134;24.718;2023-10-08T00:06:17;99885.97;;;16.99;59.48
11830;BME280;5972;42.134;24.718;2023-10-08T00:08:45;99879.28;;;16.97;58.65
11830;BME280;5972;42.134;24.718;2023-10-08T00:11:12;99881.66;;;16.98;58.51
11830;BME280;5972;42.134;24.718;2023-10-08T00:13:41;99868.38;;;17.00;57.82
11830;BME280;5972;42.134;24.718;2023-10-08T00:16:10;99876.69;;;17.15;57.16
11830;BME280;5972;42.134;24.718;2023-10-08T00:18:43;99871.28;;;17.22;56.72
11830;BME280;5972;42.134;24.718;2023-10-08T00:21:14;99837.94;;;17.02;56.38
11830;BME280;5972;42.134;24.718;2023-10-08T00:23:51;99861.53;;;17.28;55.61
11830;BME280;5972;42.134;24.718;2023-10-08T00:26:20;99854.97;;;17.32;55.39
11830;BME280;5972;42.134;24.718;2023-10-08T00:28:54;99845.56;;;17.30;54.90
11830;BME280;5972;42.134;24.718;2023-10-08T00:31:22;99858.88;;;17.35;54.91
11830;BME280;5972;42.134;24.718;2023-10-08T00:33:53;99855.31;;;17.27;54.98
11830;BME280;5972;42.134;24.718;2023-10-08T00:36:21;99858.09;;;17.34;54.32
11830;BME280;5972;42.134;24.718;2023-10-08T00:38:50;99848.72;;;17.35;54.59
11830;BME280;5972;42.134;24.718;2023-10-08T00:41:21;99856.56;;;17.37;54.58
11830;BME280;5972;42.134;24.718;2023-10-08T00:43:48;99857.72;;;17.39;54.22
11830;BME280;5972;42.134;24.718;2023-10-08T00:46:17;99859.66;;;17.39;54.26
11830;BME280;5972;42.134;24.718;2023-10-08T00:48:49;99855.34;;;17.34;54.79
11830;BME280;5972;42.134;24.718;2023-10-08T00:51:19;99851.44;;;17.35;55.33
11830;BME280;5972;42.134;24.718;2023-10-08T00:53:59;99855.34;;;17.34;55.47
11830;BME280;5972;42.134;24.718;2023-10-08T00:56:32;99847.97;;;17.38;55.59
11830;BME280;5972;42.134;24.718;2023-10-08T00:59:15;99852.25;;;17.36;55.79
11830;BME280;5972;42.134;24.718;2023-10-08T01:01:46;99847.91;;;17.31;56.03
11830;BME280;5972;42.134;24.718;2023-10-08T01:04:17;99851.41;;;17.28;56.27
11830;BME280;5972;42.134;24.718;2023-10-08T01:06:49;99842.44;;;17.31;56.05
11830;BME280;5972;42.134;24.718;2023-10-08T01:09:20;99845.13;;;17.28;56.08
11830;BME280;5972;42.134;24.718;2023-10-08T01:12:07;99845.59;;;17.37;55.75
11830;BME280;5972;42.134;24.718;2023-10-08T01:14:37;99849.13;;;17.37;55.50
11830;BME280;5972;42.134;24.718;2023-10-08T01:17:07;99831.56;;;17.42;55.21
11830;BME280;5972;42.134;24.718;2023-10-08T01:19:35;99833.94;;;17.47;55.11
11830;BME280;5972;42.134;24.718;2023-10-08T01:22:07;99787.31;;;17.26;54.19
11830;BME280;5972;42.134;24.718;2023-10-08T01:24:44;99821.47;;;17.50;53.78
11830;BME280;5972;42.134;24.718;2023-10-08T01:27:13;99833.66;;;17.63;53.63
11830;BME280;5972;42.134;24.718;2023-10-08T01:29:46;99832.09;;;17.62;53.48
11830;BME280;5972;42.134;24.718;2023-10-08T01:32:13;99830.97;;;17.66;53.41
11830;BME280;5972;42.134;24.718;2023-10-08T01:34:41;99799.16;;;17.48;53.96
11830;BME280;5972;42.134;24.718;2023-10-08T01:37:13;99821.94;;;17.62;54.55
11830;BME280;5972;42.134;24.718;2023-10-08T01:39:39;99805.41;;;17.48;55.37
11830;BME280;5972;42.134;24.718;2023-10-08T01:42:08;99810.84;;;17.37;56.15
11830;BME280;5972;42.134;24.718;2023-10-08T01:44:42;99822.50;;;17.27;56.57
11830;BME280;5972;42.134;24.718;2023-10-08T01:47:11;99811.44;;;17.10;57.60
11830;BME280;5972;42.134;24.718;2023-10-08T01:49:38;99815.66;;;17.00;58.22
11830;BME280;5972;42.134;24.718;2023-10-08T01:52:07;99799.94;;;16.90;58.27
11830;BME280;5972;42.134;24.718;2023-10-08T01:54:41;99806.63;;;16.96;57.70
11830;BME280;5972;42.134;24.718;2023-10-08T01:57:11;99804.72;;;17.00;57.38
11830;BME280;5972;42.134;24.718;2023-10-08T01:59:38;99790.28;;;17.03;56.78
11830;BME280;5972;42.134;24.718;2023-10-08T02:02:05;99788.03;;;17.16;55.84
11830;BME280;5972;42.134;24.718;2023-10-08T02:04:33;99788.84;;;17.20;55.15
11830;BME280;5972;42.134;24.718;2023-10-08T02:07:01;99784.97;;;17.24;54.71
11830;BME280;5972;42.134;24.718;2023-10-08T02:09:33;99801.06;;;17.36;54.76
11830;BME280;5972;42.134;24.718;2023-10-08T02:12:01;99795.56;;;17.33;55.01
11830;BME280;5972;42.134;24.718;2023-10-08T02:14:29;99775.19;;;17.23;55.40
11830;BME280;5972;42.134;24.718;2023-10-08T02:16:58;99795.97;;;17.35;55.26
11830;BME280;5972;42.134;24.718;2023-10-08T02:19:26;99786.59;;;17.39;54.86
11830;BME280;5972;42.134;24.718;2023-10-08T02:21:54;99771.69;;;17.26;54.17
11830;BME280;5972;42.134;24.718;2023-10-08T02:24:21;99790.56;;;17.49;53.05
11830;BME280;5972;42.134;24.718;2023-10-08T02:26:50;99785.13;;;17.53;52.39
11830;BME280;5972;42.134;24.718;2023-10-08T02:29:19;99779.31;;;17.61;51.73
11830;BME280;5972;42.134;24.718;2023-10-08T02:31:48;99782.09;;;17.65;50.83
11830;BME280;5972;42.134;24.718;2023-10-08T02:34:17;99778.97;;;17.66;50.31
11830;BME280;5972;42.134;24.718;2023-10-08T02:36:45;99782.13;;;17.72;49.77
11830;BME280;5972;42.134;24.718;2023-10-08T02:39:13;99773.91;;;17.75;49.67
11830;BME280;5972;42.134;24.718;2023-10-08T02:41:43;99775.47;;;17.80;49.77
11830;BME280;5972;42.134;24.718;2023-10-08T02:44:12;99771.59;;;17.84;49.90
11830;BME280;5972;42.134;24.718;2023-10-08T02:46:41;99768.44;;;17.79;50.04
11830;BME280;5972;42.134;24.718;2023-10-08T02:49:10;99770.00;;;17.83;49.98
11830;BME280;5972;42.134;24.718;2023-10-08T02:51:45;99778.63;;;17.85;50.12
11830;BME280;5972;42.134;24.718;2023-10-08T02:54:12;99774.69;;;17.76;50.56
11830;BME280;5972;42.134;24.718;2023-10-08T02:56:43;99778.16;;;17.62;50.86
11830;BME280;5972;42.134;24.718;2023-10-08T02:59:11;99770.66;;;17.56;51.19
11830;BME280;5972;42.134;24.718;2023-10-08T03:01:40;99780.09;;;17.62;51.32
11830;BME280;5972;42.134;24.718;2023-10-08T03:04:08;99781.97;;;17.51;51.56
11830;BME280;5972;42.134;24.718;2023-10-08T03:06:43;99780.44;;;17.57;51.63
11830;BME280;5972;42.134;24.718;2023-10-08T03:09:11;99775.69;;;17.46;52.13
11830;BME280;5972;42.134;24.718;2023-10-08T03:11:39;99776.84;;;17.38;52.21
11830;BME280;5972;42.134;24.718;2023-10-08T03:14:13;99770.59;;;17.41;51.37
11830;BME280;5972;42.134;24.718;2023-10-08T03:16:49;99765.13;;;17.45;50.44
11830;BME280;5972;42.134;24.718;2023-10-08T03:19:16;99764.38;;;17.52;49.76
11830;BME280;5972;42.134;24.718;2023-10-08T03:21:46;99766.41;;;17.62;48.33
11830;BME280;5972;42.134;24.718;2023-10-08T03:24:21;99762.19;;;17.78;47.77
11830;BME280;5972;42.134;24.718;2023-10-08T03:27:04;99759.88;;;17.88;46.80
11830;BME280;5972;42.134;24.718;2023-10-08T03:29:38;99761.84;;;17.98;47.25
11830;BME280;5972;42.134;24.718;2023-10-08T03:32:09;99765.75;;;17.97;47.30
11830;BME280;5972;42.134;24.718;2023-10-08T03:34:44;99758.72;;;17.96;47.14
11830;BME280;5972;42.134;24.718;2023-10-08T03:37:12;99741.09;;;17.82;47.11
11830;BME280;5972;42.134;24.718;2023-10-08T03:39:46;99752.03;;;17.90;46.72
11830;BME280;5972;42.134;24.718;2023-10-08T03:42:26;99759.53;;;18.00;46.50
11830;BME280;5972;42.134;24.718;2023-10-08T03:45:00;99756.78;;;18.03;46.08
11830;BME280;5972;42.134;24.718;2023-10-08T03:47:38;99738.75;;;17.92;46.43
11830;BME280;5972;42.134;24.718;2023-10-08T03:50:12;99747.41;;;18.04;46.00
11830;BME280;5972;42.134;24.718;2023-10-08T03:52:43;99755.22;;;18.02;46.43
11830;BME280;5972;42.134;24.718;2023-10-08T03:55:10;99755.59;;;18.01;46.51
11830;BME280;5972;42.134;24.718;2023-10-08T03:57:52;99754.03;;;17.96;47.28
11830;BME280;5972;42.134;24.718;2023-10-08T04:00:23;99753.25;;;17.89;47.36
11830;BME280;5972;42.134;24.718;2023-10-08T04:02:58;99761.03;;;17.86;47.51
11830;BME280;5972;42.134;24.718;2023-10-08T04:05:34;99752.41;;;17.81;47.50
11830;BME280;5972;42.134;24.718;2023-10-08T04:08:09;99744.97;;;17.74;47.65
11830;BME280;5972;42.134;24.718;2023-10-08T04:10:47;99737.53;;;17.71;48.03
11830;BME280;5972;42.134;24.718;2023-10-08T04:13:30;99746.16;;;17.77;46.98
11830;BME280;5972;42.134;24.718;2023-10-08T04:15:57;99747.31;;;17.76;46.99
11830;BME280;5972;42.134;24.718;2023-10-08T04:18:25;99750.84;;;17.76;47.53
11830;BME280;5972;42.134;24.718;2023-10-08T04:20:53;99749.25;;;17.68;47.56
11830;BME280;5972;42.134;24.718;2023-10-08T04:23:30;99738.66;;;17.60;47.47
11830;BME280;5972;42.134;24.718;2023-10-08T04:25:57;99756.66;;;17.68;47.55
11830;BME280;5972;42.134;24.718;2023-10-08T04:28:24;99747.66;;;17.64;47.26
11830;BME280;5972;42.134;24.718;2023-10-08T04:30:54;99757.44;;;17.65;47.26
11830;BME280;5972;42.134;24.718;2023-10-08T04:33:28;99748.81;;;17.59;47.23
11830;BME280;5972;42.134;24.718;2023-10-08T04:35:59;99753.56;;;17.66;46.99
11830;BME280;5972;42.134;24.718;2023-10-08T04:38:28;99739.81;;;17.59;47.08
11830;BME280;5972;42.134;24.718;2023-10-08T04:40:56;99771.50;;;17.63;47.05
11830;BME280;5972;42.134;24.718;2023-10-08T04:43:27;99764.50;;;17.69;47.01
11830;BME280;5972;42.134;24.718;2023-10-08T04:45:56;99761.75;;;17.73;46.55
11830;BME280;5972;42.134;24.718;2023-10-08T04:48:23;99755.47;;;17.62;46.57
11830;BME280;5972;42.134;24.718;2023-10-08T04:50:52;99760.22;;;17.72;46.63
11830;BME280;5972;42.134;24.718;2023-10-08T04:53:28;99766.50;;;17.79;46.31
11830;BME280;5972;42.134;24.718;2023-10-08T04:56:02;99752.75;;;17.65;46.03
11830;BME280;5972;42.134;24.718;2023-10-08T04:58:31;99752.41;;;17.74;45.86
11830;BME280;5972;42.134;24.718;2023-10-08T05:01:03;99756.31;;;17.80;44.79
11830;BME280;5972;42.134;24.718;2023-10-08T05:03:44;99761.06;;;17.97;43.95
11830;BME280;5972;42.134;24.718;2023-10-08T05:06:35;99767.75;;;18.10;43.41
11830;BME280;5972;42.134;24.718;2023-10-08T05:09:21;99748.19;;;18.12;43.06
11830;BME280;5972;42.134;24.718;2023-10-08T05:12:04;99744.69;;;18.25;42.38
11830;BME280;5972;42.134;24.718;2023-10-08T05:14:54;99762.34;;;18.74;41.35
11830;BME280;5972;42.134;24.718;2023-10-08T05:17:44;99764.25;;;19.27;39.91
11830;BME280;5972;42.134;24.718;2023-10-08T05:20:22;99757.44;;;19.74;38.85
11830;BME280;5972;42.134;24.718;2023-10-08T05:23:11;99760.69;;;20.24;37.80
11830;BME280;5972;42.134;24.718;2023-10-08T05:25:58;99749.84;;;20.58;37.02
11830;BME280;5972;42.134;24.718;2023-10-08T05:28:35;99747.59;;;20.90;36.68
11830;BME280;5972;42.134;24.718;2023-10-08T05:31:07;99747.31;;;21.22;36.41
11830;BME280;5972;42.134;24.718;2023-10-08T05:33:57;99748.47;;;21.58;35.76
11830;BME280;5972;42.134;24.718;2023-10-08T05:36:39;99739.56;;;21.78;35.51
11830;BME280;5972;42.134;24.718;2023-10-08T05:39:18;99742.94;;;22.19;34.94
11830;BME280;5972;42.134;24.718;2023-10-08T05:41:55;99732.44;;;22.61;34.45
11830;BME280;5972;42.134;24.718;2023-10-08T05:44:39;99740.44;;;23.21;33.71
11830;BME280;5972;42.134;24.718;2023-10-08T05:47:05;99730.38;;;23.90;31.53
11830;BME280;5972;42.134;24.718;2023-10-08T05:49:54;99724.56;;;25.14;29.73
11830;BME280;5972;42.134;24.718;2023-10-08T05:52:40;99734.66;;;26.04;28.24
11830;BME280;5972;42.134;24.718;2023-10-08T05:55:29;99732.91;;;26.95;26.76
11830;BME280;5972;42.134;24.718;2023-10-08T05:58:01;99734.50;;;27.61;25.53
11830;BME280;5972;42.134;24.718;2023-10-08T06:00:46;99747.81;;;28.28;25.10
11830;BME280;5972;42.134;24.718;2023-10-08T06:03:31;99755.00;;;28.47;24.83
11830;BME280;5972;42.134;24.718;2023-10-08T06:06:06;99750.78;;;28.92;24.51
11830;BME280;5972;42.134;24.718;2023-10-08T06:09:05;99758.34;;;29.37;24.21
11830;BME280;5972;42.134;24.718;2023-10-08T06:11:47;99745.94;;;30.16;23.72
11830;BME280;5972;42.134;24.718;2023-10-08T06:14:35;99748.91;;;30.13;23.33
11830;BME280;5972;42.134;24.718;2023-10-08T06:17:33;99736.81;;;30.49;23.39
11830;BME280;5972;42.134;24.718;2023-10-08T06:20:21;99752.31;;;30.97;22.81
11830;BME280;5972;42.134;24.718;2023-10-08T06:22:52;99756.78;;;30.80;22.91
11830;BME280;5972;42.134;24.718;2023-10-08T06:25:26;99755.91;;;30.74;22.89
11830;BME280;5972;42.134;24.718;2023-10-08T06:27:53;99766.06;;;30.21;23.56
11830;BME280;5972;42.134;24.718;2023-10-08T06:30:23;99778.94;;;29.49;24.27
11830;BME280;5972;42.134;24.718;2023-10-08T06:32:55;99774.19;;;28.54;25.15
11830;BME280;5972;42.134;24.718;2023-10-08T06:35:22;99780.03;;;28.97;25.55
11830;BME280;5972;42.134;24.718;2023-10-08T06:37:52;99758.00;;;29.81;24.57
11830;BME280;5972;42.134;24.718;2023-10-08T06:40:26;99766.53;;;30.61;24.15
11830;BME280;5972;42.134;24.718;2023-10-08T06:43:09;99758.28;;;31.14;23.78
11830;BME280;5972;42.134;24.718;2023-10-08T06:45:42;99765.44;;;30.82;23.57
11830;BME280;5972;42.134;24.718;2023-10-08T06:48:10;99760.91;;;29.95;24.60
11830;BME280;5972;42.134;24.718;2023-10-08T06:50:44;99775.03;;;30.90;23.92
11830;BME280;5972;42.134;24.718;2023-10-08T06:53:11;99781.09;;;31.13;23.47
11830;BME280;5972;42.134;24.718;2023-10-08T06:55:41;99796.91;;;31.16;23.08
11830;BME280;5972;42.134;24.718;2023-10-08T06:58:09;99780.75;;;31.20;22.69
11830;BME280;5972;42.134;24.718;2023-10-08T07:00:37;99787.25;;;30.93;22.52
11830;BME280;5972;42.134;24.718;2023-10-08T07:03:06;99765.88;;;31.82;22.25
11830;BME280;5972;42.134;24.718;2023-10-08T07:05:37;99761.44;;;31.90;21.31
11830;BME280;5972;42.134;24.718;2023-10-08T07:08:10;99765.00;;;32.54;20.97
11830;BME280;5972;42.134;24.718;2023-10-08T07:10:40;99760.56;;;31.84;20.75
11830;BME280;5972;42.134;24.718;2023-10-08T07:13:12;99763.19;;;31.87;20.52
11830;BME280;5972;42.134;24.718;2023-10-08T07:15:43;99757.16;;;31.35;21.02
11830;BME280;5972;42.134;24.718;2023-10-08T07:18:10;99752.63;;;31.53;21.01
11830;BME280;5972;42.134;24.718;2023-10-08T07:20:40;99744.25;;;31.97;19.88
11830;BME280;5972;42.134;24.718;2023-10-08T07:23:08;99755.69;;;32.28;19.82
11830;BME280;5972;42.134;24.718;2023-10-08T07:25:46;99747.34;;;32.13;19.71
11830;BME280;5972;42.134;24.718;2023-10-08T07:28:19;99739.97;;;31.28;20.20
11830;BME280;5972;42.134;24.718;2023-10-08T07:30:47;99731.97;;;31.21;20.18
11830;BME280;5972;42.134;24.718;2023-10-08T07:33:16;99738.63;;;30.99;20.54
11830;BME280;5972;42.134;24.718;2023-10-08T07:35:46;99723.28;;;31.19;20.49
11830;BME280;5972;42.134;24.718;2023-10-08T07:38:22;99715.25;;;31.65;20.13
11830;BME280;5972;42.134;24.718;2023-10-08T07:40:54;99719.88;;;32.52;19.48
11830;BME280;5972;42.134;24.718;2023-10-08T07:43:22;99724.63;;;32.46;19.57
11830;BME280;5972;42.134;24.718;2023-10-08T07:45:49;99728.78;;;32.01;19.88
11830;BME280;5972;42.134;24.718;2023-10-08T07:48:19;99723.91;;;31.67;20.53
11830;BME280;5972;42.134;24.718;2023-10-08T07:50:48;99726.41;;;30.97;21.20
11830;BME280;5972;42.134;24.718;2023-10-08T07:53:16;99716.50;;;31.64;20.45
11830;BME280;5972;42.134;24.718;2023-10-08T07:55:47;99701.81;;;31.01;21.02
11830;BME280;5972;42.134;24.718;2023-10-08T07:58:18;99712.91;;;31.49;20.66
11830;BME280;5972;42.134;24.718;2023-10-08T08:00:45;99720.91;;;31.41;20.71
11830;BME280;5972;42.134;24.718;2023-10-08T08:03:19;99728.00;;;31.27;20.77
11830;BME280;5972;42.134;24.718;2023-10-08T08:05:46;99719.97;;;31.59;20.69
11830;BME280;5972;42.134;24.718;2023-10-08T08:08:19;99711.47;;;31.68;20.83
11830;BME280;5972;42.134;24.718;2023-10-08T08:10:48;99711.13;;;31.95;20.45
11830;BME280;5972;42.134;24.718;2023-10-08T08:13:15;99713.00;;;32.33;20.21
11830;BME280;5972;42.134;24.718;2023-10-08T08:15:47;99717.34;;;32.34;19.95
11830;BME280;5972;42.134;24.718;2023-10-08T08:18:17;99699.50;;;32.52;19.62
11830;BME280;5972;42.134;24.718;2023-10-08T08:20:49;99704.03;;;32.29;19.94
11830;BME280;5972;42.134;24.718;2023-10-08T08:23:16;99703.75;;;32.27;19.81
11830;BME280;5972;42.134;24.718;2023-10-08T08:25:43;99680.72;;;32.03;19.84
11830;BME280;5972;42.134;24.718;2023-10-08T08:28:31;99691.19;;;31.73;19.94
11830;BME280;5972;42.134;24.718;2023-10-08T08:31:03;99691.72;;;32.21;20.07
11830;BME280;5972;42.134;24.718;2023-10-08T08:33:39;99695.00;;;32.40;20.09
11830;BME280;5972;42.134;24.718;2023-10-08T08:36:19;99683.63;;;32.43;20.04
11830;BME280;5972;42.134;24.718;2023-10-08T08:38:47;99684.69;;;33.12;19.62
11830;BME280;5972;42.134;24.718;2023-10-08T08:41:14;99678.84;;;32.29;20.00
11830;BME280;5972;42.134;24.718;2023-10-08T08:43:44;99681.06;;;32.10;20.06
11830;BME280;5972;42.134;24.718;2023-10-08T08:46:14;99659.22;;;32.49;20.00
11830;BME280;5972;42.134;24.718;2023-10-08T08:48:42;99677.75;;;32.82;19.65
11830;BME280;5972;42.134;24.718;2023-10-08T08:51:10;99666.84;;;32.29;19.95
11830;BME280;5972;42.134;24.718;2023-10-08T08:53:37;99669.84;;;31.90;20.21
11830;BME280;5972;42.134;24.718;2023-10-08T08:56:07;99657.16;;;31.74;20.71
11830;BME280;5972;42.134;24.718;2023-10-08T08:58:36;99653.63;;;31.94;20.35
11830;BME280;5972;42.134;24.718;2023-10-08T09:01:06;99653.25;;;31.87;20.55
11830;BME280;5972;42.134;24.718;2023-10-08T09:03:35;99646.06;;;32.00;20.59
11830;BME280;5972;42.134;24.718;2023-10-08T09:06:02;99638.34;;;32.10;20.57
11830;BME280;5972;42.134;24.718;2023-10-08T09:08:33;99629.53;;;31.82;20.16
11830;BME280;5972;42.134;24.718;2023-10-08T09:11:00;99636.75;;;31.89;20.51
11830;BME280;5972;42.134;24.718;2023-10-08T09:13:30;99634.94;;;32.21;20.20
11830;BME280;5972;42.134;24.718;2023-10-08T09:16:02;99637.19;;;32.37;19.86
11830;BME280;5972;42.134;24.718;2023-10-08T09:18:31;99630.25;;;32.32;20.15
11830;BME280;5972;42.134;24.718;2023-10-08T09:21:09;99614.84;;;32.88;19.62
11830;BME280;5972;42.134;24.718;2023-10-08T09:23:40;99619.53;;;32.71;19.68
11830;BME280;5972;42.134;24.718;2023-10-08T09:26:13;99609.97;;;32.83;20.27
11830;BME280;5972;42.134;24.718;2023-10-08T09:28:44;99614.38;;;32.90;19.67
11830;BME280;5972;42.134;24.718;2023-10-08T09:31:12;99624.31;;;32.91;19.74
11830;BME280;5972;42.134;24.718;2023-10-08T09:33:39;99611.69;;;33.27;19.42
11830;BME280;5972;42.134;24.718;2023-10-08T09:36:09;99601.91;;;34.28;19.37
11830;BME280;5972;42.134;24.718;2023-10-08T09:38:44;99599.19;;;34.50;19.22
11830;BME280;5972;42.134;24.718;2023-10-08T09:41:14;99604.31;;;34.57;19.29
11830;BME280;5972;42.134;24.718;2023-10-08T09:43:41;99600.56;;;34.77;18.80
11830;BME280;5972;42.134;24.718;2023-10-08T09:46:15;99595.72;;;34.77;19.10
11830;BME280;5972;42.134;24.718;2023-10-08T09:48:48;99592.94;;;34.88;18.84
11830;BME280;5972;42.134;24.718;2023-10-08T09:51:17;99590.88;;;35.00;18.52
11830;BME280;5972;42.134;24.718;2023-10-08T09:53:52;99572.00;;;35.23;18.82
11830;BME280;5972;42.134;24.718;2023-10-08T09:56:20;99583.47;;;35.64;18.52
11830;BME280;5972;42.134;24.718;2023-10-08T09:58:47;99593.19;;;35.18;19.09
11830;BME280;5972;42.134;24.718;2023-10-08T10:01:16;99576.81;;;35.00;18.70
11830;BME280;5972;42.134;24.718;2023-10-08T10:03:44;99578.34;;;35.01;18.95
11830;BME280;5972;42.134;24.718;2023-10-08T10:06:12;99580.41;;;35.17;18.76
11830;BME280;5972;42.134;24.718;2023-10-08T10:08:42;99568.94;;;35.32;18.98
11830;BME280;5972;42.134;24.718;2023-10-08T10:11:09;99562.44;;;35.93;18.73
11830;BME280;5972;42.134;24.718;2023-10-08T10:13:41;99565.06;;;35.68;18.89
11830;BME280;5972;42.134;24.718;2023-10-08T10:16:10;99547.19;;;35.10;18.88
11830;BME280;5972;42.134;24.718;2023-10-08T10:18:38;99560.84;;;34.36;19.98
11830;BME280;5972;42.134;24.718;2023-10-08T10:21:24;99555.59;;;34.12;19.64
11830;BME280;5972;42.134;24.718;2023-10-08T10:23:54;99558.34;;;33.53;20.58
11830;BME280;5972;42.134;24.718;2023-10-08T10:26:24;99533.28;;;33.12;20.41
11830;BME280;5972;42.134;24.718;2023-10-08T10:29:21;99553.84;;;32.11;21.23
11830;BME280;5972;42.134;24.718;2023-10-08T10:31:51;99548.81;;;31.95;21.93
11830;BME280;5972;42.134;24.718;2023-10-08T10:34:21;99543.31;;;32.67;21.32
11830;BME280;5972;42.134;24.718;2023-10-08T10:36:50;99527.09;;;33.71;20.88
11830;BME280;5972;42.134;24.718;2023-10-08T10:39:24;99500.41;;;33.92;20.03
11830;BME280;5972;42.134;24.718;2023-10-08T10:41:56;99515.41;;;34.43;20.41
11830;BME280;5972;42.134;24.718;2023-10-08T10:44:26;99501.66;;;34.73;20.09
11830;BME280;5972;42.134;24.718;2023-10-08T10:46:56;99505.97;;;34.57;20.45
11830;BME280;5972;42.134;24.718;2023-10-08T10:49:37;99501.59;;;34.50;20.67
11830;BME280;5972;42.134;24.718;2023-10-08T10:52:14;99503.19;;;34.85;20.37
11830;BME280;5972;42.134;24.718;2023-10-08T10:54:45;99487.09;;;34.74;20.59
11830;BME280;5972;42.134;24.718;2023-10-08T10:57:24;99486.09;;;34.77;20.52
11830;BME280;5972;42.134;24.718;2023-10-08T10:59:52;99463.28;;;34.31;20.97
11830;BME280;5972;42.134;24.718;2023-10-08T11:02:19;99486.06;;;34.60;20.84
11830;BME280;5972;42.134;24.718;2023-10-08T11:04:47;99498.03;;;33.74;21.41
11830;BME280;5972;42.134;24.718;2023-10-08T11:07:14;99484.53;;;33.04;21.65
11830;BME280;5972;42.134;24.718;2023-10-08T11:09:44;99484.84;;;32.80;22.27
11830;BME280;5972;42.134;24.718;2023-10-08T11:12:14;99482.25;;;32.51;22.86
11830;BME280;5972;42.134;24.718;2023-10-08T11:14:48;99483.25;;;32.22;23.00
11830;BME280;5972;42.134;24.718;2023-10-08T11:17:22;99452.75;;;31.84;23.12
11830;BME280;5972;42.134;24.718;2023-10-08T11:19:52;99482.06;;;31.88;23.18
11830;BME280;5972;42.134;24.718;2023-10-08T11:22:19;99455.00;;;31.24;23.76
11830;BME280;5972;42.134;24.718;2023-10-08T11:24:49;99463.75;;;31.32;23.73
11830;BME280;5972;42.134;24.718;2023-10-08T11:27:19;99469.63;;;31.34;24.08
11830;BME280;5972;42.134;24.718;2023-10-08T11:29:56;99467.66;;;31.40;24.03
11830;BME280;5972;42.134;24.718;2023-10-08T11:32:24;99454.44;;;31.20;23.90
11830;BME280;5972;42.134;24.718;2023-10-08T11:34:55;99453.94;;;31.22;24.10
11830;BME280;5972;42.134;24.718;2023-10-08T11:37:28;99447.91;;;31.09;24.04
11830;BME280;5972;42.134;24.718;2023-10-08T11:39:56;99441.81;;;31.10;24.17
11830;BME280;5972;42.134;24.718;2023-10-08T11:42:24;99440.97;;;31.04;24.25
11830;BME280;5972;42.134;24.718;2023-10-08T11:45:09;99442.03;;;30.92;24.36
11830;BME280;5972;42.134;24.718;2023-10-08T11:47:50;99442.91;;;30.98;24.64
11830;BME280;5972;42.134;24.718;2023-10-08T11:50:23;99439.94;;;30.87;24.53
11830;BME280;5972;42.134;24.718;2023-10-08T11:52:57;99438.09;;;30.84;24.51
11830;BME280;5972;42.134;24.718;2023-10-08T11:55:29;99436.34;;;31.01;24.51
11830;BME280;5972;42.134;24.718;2023-10-08T11:57:59;99430.84;;;31.07;24.76
11830;BME280;5972;42.134;24.718;2023-10-08T12:00:26;99432.19;;;30.96;24.61
11830;BME280;5972;42.134;24.718;2023-10-08T12:05:43;99396.91;;;30.49;24.91
11830;BME280;5972;42.134;24.718;2023-10-08T12:08:14;99415.47;;;30.38;25.30
11830;BME280;5972;42.134;24.718;2023-10-08T12:10:43;99412.56;;;30.32;24.94
11830;BME280;5972;42.134;24.718;2023-10-08T12:13:11;99401.03;;;30.25;25.16
11830;BME280;5972;42.134;24.718;2023-10-08T12:15:38;99400.53;;;30.26;25.52
11830;BME280;5972;42.134;24.718;2023-10-08T12:18:07;99397.84;;;30.46;25.21
11830;BME280;5972;42.134;24.718;2023-10-08T12:20:50;99395.44;;;30.54;24.94
11830;BME280;5972;42.134;24.718;2023-10-08T12:23:18;99392.28;;;30.61;24.96
11830;BME280;5972;42.134;24.718;2023-10-08T12:25:52;99397.59;;;30.59;25.01
11830;BME280;5972;42.134;24.718;2023-10-08T12:28:21;99403.75;;;30.63;25.10
11830;BME280;5972;42.134;24.718;2023-10-08T12:30:49;99378.31;;;30.46;25.20
11830;BME280;5972;42.134;24.718;2023-10-08T12:33:18;99397.19;;;30.66;25.08
11830;BME280;5972;42.134;24.718;2023-10-08T12:35:45;99391.22;;;30.59;24.74
11830;BME280;5972;42.134;24.718;2023-10-08T12:38:13;99381.31;;;30.58;25.27
11830;BME280;5972;42.134;24.718;2023-10-08T12:40:40;99389.88;;;30.69;24.78
11830;BME280;5972;42.134;24.718;2023-10-08T12:43:19;99396.63;;;30.62;25.21
11830;BME280;5972;42.134;24.718;2023-10-08T12:45:47;99388.72;;;30.61;25.04
11830;BME280;5972;42.134;24.718;2023-10-08T12:48:21;99398.41;;;30.65;24.91
11830;BME280;5972;42.134;24.718;2023-10-08T12:50:48;99395.94;;;30.67;24.59
11830;BME280;5972;42.134;24.718;2023-10-08T12:53:23;99398.03;;;30.72;24.93
11830;BME280;5972;42.134;24.718;2023-10-08T12:55:53;99384.19;;;30.63;24.52
11830;BME280;5972;42.134;24.718;2023-10-08T12:58:23;99387.75;;;30.64;24.68
11830;BME280;5972;42.134;24.718;2023-10-08T13:00:52;99387.44;;;30.76;24.68
11830;BME280;5972;42.134;24.718;2023-10-08T13:03:24;99374.97;;;30.57;24.60
11830;BME280;5972;42.134;24.718;2023-10-08T13:05:56;99384.53;;;30.85;24.41
11830;BME280;5972;42.134;24.718;2023-10-08T13:08:29;99378.97;;;30.71;24.50
11830;BME280;5972;42.134;24.718;2023-10-08T13:10:56;99381.53;;;30.89;24.24
11830;BME280;5972;42.134;24.718;2023-10-08T13:13:27;99378.47;;;30.87;24.33
11830;BME280;5972;42.134;24.718;2023-10-08T13:15:54;99380.16;;;30.64;24.43
11830;BME280;5972;42.134;24.718;2023-10-08T13:18:26;99373.97;;;30.45;24.26
11830;BME280;5972;42.134;24.718;2023-10-08T13:20:53;99364.16;;;30.35;24.71
11830;BME280;5972;42.134;24.718;2023-10-08T13:23:20;99370.44;;;30.30;24.49
11830;BME280;5972;42.134;24.718;2023-10-08T13:25:49;99361.66;;;30.08;25.17
11830;BME280;5972;42.134;24.718;2023-10-08T13:28:20;99369.44;;;30.04;25.19